createdAt,value
2016-11-05T00:00:51.792Z,998.98
2016-11-05T00:01:51.778Z,998.95
2016-11-05T00:02:51.759Z,998.89
2016-11-05T00:03:51.744Z,998.92
2016-11-05T00:04:51.728Z,998.86
2016-11-05T00:05:51.711Z,998.83
2016-11-05T00:06:51.748Z,998.8
2016-11-05T00:07:51.679Z,998.7
2016-11-05T00:08:51.662Z,998.71
2016-11-05T00:09:51.649Z,998.68
2016-11-05T00:10:51.631Z,998.73
2016-11-05T00:11:51.616Z,998.69
2016-11-05T00:12:51.599Z,998.66
2016-11-05T00:13:51.586Z,998.66
2016-11-05T00:14:51.567Z,998.64
2016-11-05T00:15:51.551Z,998.62
2016-11-05T00:16:51.537Z,998.65
2016-11-05T00:17:51.521Z,998.64
2016-11-05T00:18:51.504Z,998.58
2016-11-05T00:19:51.487Z,998.62
2016-11-05T00:20:51.471Z,998.57
2016-11-05T00:21:51.455Z,998.57
2016-11-05T00:22:51.447Z,998.6
2016-11-05T00:23:51.422Z,998.57
2016-11-05T00:24:51.407Z,998.58
2016-11-05T00:25:51.391Z,998.6
2016-11-05T00:26:51.377Z,998.56
2016-11-05T00:27:51.357Z,998.51
2016-11-05T00:28:51.342Z,998.48
2016-11-05T00:29:51.327Z,998.46
2016-11-05T00:30:51.311Z,998.44
2016-11-05T00:31:51.295Z,998.43
2016-11-05T00:32:51.279Z,998.4
2016-11-05T00:33:51.286Z,998.4
2016-11-05T00:34:51.245Z,998.34
2016-11-05T00:35:51.230Z,998.33
2016-11-05T00:36:51.220Z,998.34
2016-11-05T00:37:51.251Z,998.32
2016-11-05T00:38:51.180Z,998.3
2016-11-05T00:39:51.166Z,998.28
2016-11-05T00:40:51.148Z,998.27
2016-11-05T00:41:51.133Z,998.26
2016-11-05T00:42:51.116Z,998.26
2016-11-05T00:43:51.100Z,998.28
2016-11-05T00:44:51.085Z,998.33
2016-11-05T00:45:51.068Z,998.25
2016-11-05T00:46:51.051Z,998.25
2016-11-05T00:47:51.035Z,998.26
2016-11-05T00:48:51.018Z,998.24
2016-11-05T00:49:51.005Z,998.25
2016-11-05T00:50:50.988Z,998.25
2016-11-05T00:51:50.971Z,998.25
2016-11-05T00:52:50.956Z,998.26
2016-11-05T00:53:50.938Z,998.26
2016-11-05T00:54:50.923Z,998.29
2016-11-05T00:55:50.906Z,998.24
2016-11-05T00:56:50.891Z,998.24
2016-11-05T00:57:50.872Z,998.26
2016-11-05T00:58:50.862Z,998.24
2016-11-05T00:59:50.841Z,998.18
2016-11-05T01:00:50.826Z,998.17
2016-11-05T01:01:50.808Z,998.15
2016-11-05T01:02:50.793Z,998.17
2016-11-05T01:03:50.776Z,998.17
2016-11-05T01:04:50.761Z,998.15
2016-11-05T01:05:50.750Z,998.15
2016-11-05T01:06:50.729Z,998.11
2016-11-05T01:07:50.711Z,998.13
2016-11-05T01:08:50.696Z,998.14
2016-11-05T01:09:50.680Z,998.12
2016-11-05T01:10:50.664Z,998.11
2016-11-05T01:11:50.651Z,998.07
2016-11-05T01:12:50.632Z,998.05
2016-11-05T01:13:50.616Z,998.08
2016-11-05T01:14:50.599Z,998.07
2016-11-05T01:15:50.582Z,998.05
2016-11-05T01:16:50.567Z,998.05
2016-11-05T01:17:50.551Z,998.05
2016-11-05T01:18:50.534Z,997.94
2016-11-05T01:19:50.517Z,997.97
2016-11-05T01:20:50.502Z,997.94
2016-11-05T01:21:50.485Z,997.88
2016-11-05T01:22:50.471Z,997.95
2016-11-05T01:23:50.454Z,997.92
2016-11-05T01:24:50.438Z,997.88
2016-11-05T01:25:50.420Z,997.88
2016-11-05T01:26:50.404Z,997.85
2016-11-05T01:27:50.389Z,997.81
2016-11-05T01:28:50.372Z,997.78
2016-11-05T01:29:50.355Z,997.82
2016-11-05T01:30:50.341Z,997.76
2016-11-05T01:31:50.326Z,997.74
2016-11-05T01:32:50.307Z,997.7
2016-11-05T01:33:50.290Z,997.76
2016-11-05T01:34:50.275Z,997.75
2016-11-05T01:35:50.259Z,997.7
2016-11-05T01:36:50.242Z,997.68
2016-11-05T01:37:50.225Z,997.67
2016-11-05T01:38:50.215Z,997.64
2016-11-05T01:39:50.194Z,997.58
2016-11-05T01:40:50.177Z,997.55
2016-11-05T01:41:50.162Z,997.45
2016-11-05T01:42:50.145Z,997.43
2016-11-05T01:43:50.127Z,997.41
2016-11-05T01:44:50.112Z,997.43
2016-11-05T01:45:50.093Z,997.37
2016-11-05T01:46:50.080Z,997.32
2016-11-05T01:47:50.065Z,997.34
2016-11-05T01:48:50.047Z,997.34
2016-11-05T01:49:50.034Z,997.32
2016-11-05T01:50:50.015Z,997.28
2016-11-05T01:51:49.998Z,997.28
2016-11-05T01:52:49.984Z,997.3
2016-11-05T01:53:49.967Z,997.3
2016-11-05T01:54:49.950Z,997.26
2016-11-05T01:55:49.935Z,997.21
2016-11-05T01:56:49.917Z,997.23
2016-11-05T01:57:49.903Z,997.17
2016-11-05T01:58:49.885Z,997.14
2016-11-05T01:59:49.870Z,997.2
2016-11-05T02:00:49.853Z,997.15
2016-11-05T02:01:49.836Z,997.16
2016-11-05T02:02:49.822Z,997.15
2016-11-05T02:03:49.803Z,997.14
2016-11-05T02:04:49.791Z,997.14
2016-11-05T02:05:49.771Z,997.12
2016-11-05T02:06:49.755Z,997.1
2016-11-05T02:07:49.738Z,997.11
2016-11-05T02:08:49.723Z,997.06
2016-11-05T02:09:49.706Z,997.01
2016-11-05T02:10:49.689Z,996.99
2016-11-05T02:11:49.673Z,997.01
2016-11-05T02:12:49.656Z,997.02
2016-11-05T02:13:49.641Z,997
2016-11-05T02:14:49.627Z,996.96
2016-11-05T02:15:49.610Z,997
2016-11-05T02:16:49.591Z,996.96
2016-11-05T02:17:49.575Z,996.91
2016-11-05T02:18:49.557Z,996.9
2016-11-05T02:19:49.541Z,996.85
2016-11-05T02:20:49.526Z,996.81
2016-11-05T02:21:49.508Z,996.81
2016-11-05T02:22:49.494Z,996.87
2016-11-05T02:23:49.475Z,996.82
2016-11-05T02:24:49.462Z,996.86
2016-11-05T02:25:49.443Z,996.86
2016-11-05T02:26:49.428Z,996.9
2016-11-05T02:27:49.409Z,996.87
2016-11-05T02:28:49.401Z,996.84
2016-11-05T02:29:49.377Z,996.87
2016-11-05T02:30:49.362Z,996.83
2016-11-05T02:31:49.345Z,996.8
2016-11-05T02:32:49.329Z,996.8
2016-11-05T02:33:49.315Z,996.8
2016-11-05T02:34:49.295Z,996.85
2016-11-05T02:35:49.280Z,996.89
2016-11-05T02:36:49.263Z,996.81
2016-11-05T02:37:49.248Z,996.77
2016-11-05T02:38:49.236Z,996.75
2016-11-05T02:39:49.215Z,996.77
2016-11-05T02:40:49.206Z,996.8
2016-11-05T02:41:49.183Z,996.8
2016-11-05T02:42:49.166Z,996.75
2016-11-05T02:43:49.148Z,996.77
2016-11-05T02:44:49.135Z,996.7
2016-11-05T02:45:49.115Z,996.71
2016-11-05T02:46:49.100Z,996.69
2016-11-05T02:47:49.083Z,996.65
2016-11-05T02:48:49.071Z,996.64
2016-11-05T02:49:49.050Z,996.61
2016-11-05T02:50:49.033Z,996.57
2016-11-05T02:51:49.018Z,996.56
2016-11-05T02:52:49.002Z,996.49
2016-11-05T02:53:48.986Z,996.52
2016-11-05T02:54:48.967Z,996.48
2016-11-05T02:55:48.953Z,996.45
2016-11-05T02:56:48.935Z,996.38
2016-11-05T02:57:48.919Z,996.37
2016-11-05T02:58:48.903Z,996.38
2016-11-05T02:59:48.891Z,996.32
2016-11-05T03:00:48.871Z,996.33
2016-11-05T03:01:48.853Z,996.3
2016-11-05T03:02:48.838Z,996.27
2016-11-05T03:03:48.821Z,996.35
2016-11-05T03:04:48.807Z,996.29
2016-11-05T03:05:48.788Z,996.3
2016-11-05T03:06:48.772Z,996.29
2016-11-05T03:07:48.756Z,996.31
2016-11-05T03:08:48.742Z,996.27
2016-11-05T03:09:48.724Z,996.22
2016-11-05T03:10:48.711Z,996.18
2016-11-05T03:11:48.691Z,996.15
2016-11-05T03:12:48.677Z,996.13
2016-11-05T03:13:48.659Z,996.12
2016-11-05T03:14:48.642Z,996.12
2016-11-05T03:15:48.625Z,996.09
2016-11-05T03:16:48.609Z,996.05
2016-11-05T03:17:48.597Z,996
2016-11-05T03:18:48.577Z,996.01
2016-11-05T03:19:48.560Z,996
2016-11-05T03:20:48.544Z,996
2016-11-05T03:21:48.532Z,996
2016-11-05T03:22:48.507Z,995.98
2016-11-05T03:23:48.495Z,995.95
2016-11-05T03:24:48.478Z,995.98
2016-11-05T03:25:48.462Z,995.93
2016-11-05T03:26:48.447Z,996
2016-11-05T03:27:48.430Z,995.9
2016-11-05T03:28:48.417Z,995.87
2016-11-05T03:29:48.398Z,995.87
2016-11-05T03:30:48.381Z,995.9
2016-11-05T03:31:48.365Z,995.83
2016-11-05T03:32:48.348Z,995.83
2016-11-05T03:33:48.333Z,995.87
2016-11-05T03:34:48.316Z,995.86
2016-11-05T03:35:48.301Z,995.87
2016-11-05T03:36:48.283Z,995.87
2016-11-05T03:37:48.269Z,995.86
2016-11-05T03:38:48.251Z,995.91
2016-11-05T03:39:48.238Z,995.84
2016-11-05T03:40:48.216Z,995.8
2016-11-05T03:41:48.201Z,995.82
2016-11-05T03:42:48.184Z,995.84
2016-11-05T03:43:48.171Z,995.78
2016-11-05T03:44:48.152Z,995.81
2016-11-05T03:45:48.137Z,995.79
2016-11-05T03:46:48.119Z,995.76
2016-11-05T03:47:48.106Z,995.76
2016-11-05T03:48:48.089Z,995.8
2016-11-05T03:49:48.070Z,995.72
2016-11-05T03:50:48.054Z,995.73
2016-11-05T03:51:48.037Z,995.71
2016-11-05T03:52:48.031Z,995.75
2016-11-05T03:53:48.005Z,995.78
2016-11-05T03:54:47.988Z,995.72
2016-11-05T03:55:47.971Z,995.72
2016-11-05T03:56:47.958Z,995.68
2016-11-05T03:57:47.940Z,995.71
2016-11-05T03:58:47.923Z,995.71
2016-11-05T03:59:47.906Z,995.72
2016-11-05T04:00:47.888Z,995.72
2016-11-05T04:01:47.873Z,995.73
2016-11-05T04:02:47.856Z,995.71
2016-11-05T04:03:47.840Z,995.71
2016-11-05T04:04:47.824Z,995.72
2016-11-05T04:05:47.808Z,995.72
2016-11-05T04:06:47.790Z,995.7
2016-11-05T04:07:47.778Z,995.68
2016-11-05T04:08:47.762Z,995.66
2016-11-05T04:09:47.741Z,995.62
2016-11-05T04:10:47.726Z,995.61
2016-11-05T04:11:47.709Z,995.59
2016-11-05T04:12:47.692Z,995.56
2016-11-05T04:13:47.675Z,995.55
2016-11-05T04:14:47.659Z,995.55
2016-11-05T04:15:47.643Z,995.55
2016-11-05T04:16:47.627Z,995.56
2016-11-05T04:17:47.611Z,995.6
2016-11-05T04:18:47.595Z,995.59
2016-11-05T04:19:47.578Z,995.58
2016-11-05T04:20:47.560Z,995.56
2016-11-05T04:21:47.544Z,995.47
2016-11-05T04:22:47.531Z,995.47
2016-11-05T04:23:47.517Z,995.44
2016-11-05T04:24:47.495Z,995.42
2016-11-05T04:25:47.479Z,995.45
2016-11-05T04:26:47.462Z,995.43
2016-11-05T04:27:47.446Z,995.37
2016-11-05T04:28:47.433Z,995.44
2016-11-05T04:29:47.414Z,995.44
2016-11-05T04:30:47.396Z,995.43
2016-11-05T04:31:47.380Z,995.41
2016-11-05T04:32:47.368Z,995.38
2016-11-05T04:33:47.347Z,995.35
2016-11-05T04:34:47.332Z,995.36
2016-11-05T04:35:47.314Z,995.35
2016-11-05T04:36:47.300Z,995.3
2016-11-05T04:37:47.285Z,995.3
2016-11-05T04:38:47.265Z,995.33
2016-11-05T04:39:47.248Z,995.32
2016-11-05T04:40:47.233Z,995.31
2016-11-05T04:41:47.215Z,995.26
2016-11-05T04:42:47.199Z,995.26
2016-11-05T04:43:47.183Z,995.27
2016-11-05T04:44:47.166Z,995.24
2016-11-05T04:45:47.151Z,995.23
2016-11-05T04:46:47.134Z,995.2
2016-11-05T04:47:47.118Z,995.16
2016-11-05T04:48:47.101Z,995.22
2016-11-05T04:49:47.086Z,995.17
2016-11-05T04:50:47.069Z,995.19
2016-11-05T04:51:47.051Z,995.21
2016-11-05T04:52:47.039Z,995.17
2016-11-05T04:53:47.019Z,995.18
2016-11-05T04:54:47.002Z,995.17
2016-11-05T04:55:46.986Z,995.18
2016-11-05T04:56:46.966Z,995.16
2016-11-05T04:57:46.948Z,995.13
2016-11-05T04:58:46.937Z,995.1
2016-11-05T04:59:46.920Z,995.08
2016-11-05T05:00:46.904Z,995.05
2016-11-05T05:01:46.887Z,995.08
2016-11-05T05:02:46.872Z,995.03
2016-11-05T05:03:46.855Z,995.03
2016-11-05T05:04:46.838Z,994.99
2016-11-05T05:05:46.822Z,995
2016-11-05T05:06:46.806Z,994.96
2016-11-05T05:07:46.790Z,994.94
2016-11-05T05:08:46.773Z,994.94
2016-11-05T05:09:46.756Z,994.95
2016-11-05T05:10:46.740Z,994.91
2016-11-05T05:11:46.723Z,994.9
2016-11-05T05:12:46.711Z,994.88
2016-11-05T05:13:46.691Z,994.89
2016-11-05T05:14:46.674Z,994.88
2016-11-05T05:15:46.655Z,994.85
2016-11-05T05:16:46.641Z,994.87
2016-11-05T05:17:46.626Z,994.82
2016-11-05T05:18:46.609Z,994.84
2016-11-05T05:19:46.592Z,994.8
2016-11-05T05:20:46.576Z,994.76
2016-11-05T05:21:46.559Z,994.76
2016-11-05T05:22:46.542Z,994.78
2016-11-05T05:23:46.527Z,994.78
2016-11-05T05:24:46.510Z,994.77
2016-11-05T05:25:46.494Z,994.77
2016-11-05T05:26:46.477Z,994.74
2016-11-05T05:27:46.460Z,994.75
2016-11-05T05:28:46.445Z,994.73
2016-11-05T05:29:46.429Z,994.74
2016-11-05T05:30:46.417Z,994.74
2016-11-05T05:31:46.395Z,994.73
2016-11-05T05:32:46.382Z,994.73
2016-11-05T05:33:46.363Z,994.71
2016-11-05T05:34:46.348Z,994.71
2016-11-05T05:35:46.330Z,994.79
2016-11-05T05:36:46.315Z,994.73
2016-11-05T05:37:46.298Z,994.73
2016-11-05T05:38:46.280Z,994.68
2016-11-05T05:39:46.267Z,994.68
2016-11-05T05:40:46.250Z,994.73
2016-11-05T05:41:46.237Z,994.69
2016-11-05T05:42:46.216Z,994.7
2016-11-05T05:43:46.200Z,994.68
2016-11-05T05:44:46.183Z,994.67
2016-11-05T05:45:46.168Z,994.67
2016-11-05T05:46:46.151Z,994.64
2016-11-05T05:47:46.136Z,994.72
2016-11-05T05:48:46.119Z,994.72
2016-11-05T05:49:46.105Z,994.68
2016-11-05T05:50:46.089Z,994.7
2016-11-05T05:51:46.070Z,994.73
2016-11-05T05:52:46.058Z,994.69
2016-11-05T05:53:46.038Z,994.71
2016-11-05T05:54:46.023Z,994.71
2016-11-05T05:55:46.006Z,994.7
2016-11-05T05:56:45.993Z,994.68
2016-11-05T05:57:45.974Z,994.65
2016-11-05T05:58:45.958Z,994.66
2016-11-05T05:59:45.941Z,994.65
2016-11-05T06:00:45.926Z,994.67
2016-11-05T06:01:45.909Z,994.67
2016-11-05T06:02:45.894Z,994.65
2016-11-05T06:03:45.876Z,994.6
2016-11-05T06:04:45.865Z,994.57
2016-11-05T06:05:45.848Z,994.53
2016-11-05T06:06:45.827Z,994.51
2016-11-05T06:07:45.814Z,994.5
2016-11-05T06:08:45.797Z,994.47
2016-11-05T06:09:45.781Z,994.5
2016-11-05T06:10:45.764Z,994.52
2016-11-05T06:11:45.748Z,994.5
2016-11-05T06:12:45.731Z,994.52
2016-11-05T06:13:45.716Z,994.52
2016-11-05T06:14:45.698Z,994.59
2016-11-05T06:15:45.685Z,994.58
2016-11-05T06:16:45.669Z,994.65
2016-11-05T06:17:45.653Z,994.67
2016-11-05T06:18:45.635Z,994.66
2016-11-05T06:19:45.619Z,994.6
2016-11-05T06:20:45.603Z,994.6
2016-11-05T06:21:45.586Z,994.6
2016-11-05T06:22:45.570Z,994.6
2016-11-05T06:23:45.555Z,994.55
2016-11-05T06:24:45.540Z,994.55
2016-11-05T06:25:45.523Z,994.52
2016-11-05T06:26:45.506Z,994.49
2016-11-05T06:27:45.490Z,994.42
2016-11-05T06:28:45.473Z,994.43
2016-11-05T06:29:45.458Z,994.4
2016-11-05T06:30:45.447Z,994.41
2016-11-05T06:31:45.430Z,994.44
2016-11-05T06:32:45.410Z,994.43
2016-11-05T06:33:45.395Z,994.41
2016-11-05T06:34:45.378Z,994.39
2016-11-05T06:35:45.363Z,994.39
2016-11-05T06:36:45.347Z,994.41
2016-11-05T06:37:45.330Z,994.4
2016-11-05T06:38:45.315Z,994.37
2016-11-05T06:39:45.303Z,994.33
2016-11-05T06:40:45.282Z,994.39
2016-11-05T06:41:45.267Z,994.38
2016-11-05T06:42:45.251Z,994.44
2016-11-05T06:43:45.235Z,994.4
2016-11-05T06:44:45.219Z,994.42
2016-11-05T06:45:45.203Z,994.41
2016-11-05T06:46:45.189Z,994.41
2016-11-05T06:47:45.169Z,994.42
2016-11-05T06:48:45.155Z,994.43
2016-11-05T06:49:45.138Z,994.41
2016-11-05T06:50:45.121Z,994.41
2016-11-05T06:51:45.106Z,994.35
2016-11-05T06:52:45.094Z,994.3
2016-11-05T06:53:45.073Z,994.26
2016-11-05T06:54:45.058Z,994.25
2016-11-05T06:55:45.043Z,994.22
2016-11-05T06:56:45.025Z,994.19
2016-11-05T06:57:45.012Z,994.2
2016-11-05T06:58:44.995Z,994.23
2016-11-05T06:59:44.977Z,994.27
2016-11-05T07:00:44.965Z,994.32
2016-11-05T07:01:44.945Z,994.31
2016-11-05T07:02:44.930Z,994.33
2016-11-05T07:03:44.918Z,994.29
2016-11-05T07:04:44.899Z,994.31
2016-11-05T07:05:44.881Z,994.28
2016-11-05T07:06:44.868Z,994.34
2016-11-05T07:07:44.849Z,994.31
2016-11-05T07:08:44.835Z,994.35
2016-11-05T07:09:44.817Z,994.38
2016-11-05T07:10:44.802Z,994.4
2016-11-05T07:11:44.786Z,994.41
2016-11-05T07:12:44.769Z,994.46
2016-11-05T07:13:44.752Z,994.44
2016-11-05T07:14:44.738Z,994.48
2016-11-05T07:15:44.725Z,994.43
2016-11-05T07:16:44.706Z,994.49
2016-11-05T07:17:44.692Z,994.47
2016-11-05T07:18:44.675Z,994.44
2016-11-05T07:19:44.659Z,994.44
2016-11-05T07:20:44.641Z,994.41
2016-11-05T07:21:44.626Z,994.43
2016-11-05T07:22:44.610Z,994.46
2016-11-05T07:23:44.593Z,994.46
2016-11-05T07:24:44.579Z,994.42
2016-11-05T07:25:44.563Z,994.41
2016-11-05T07:26:44.547Z,994.38
2016-11-05T07:27:44.530Z,994.4
2016-11-05T07:28:44.515Z,994.4
2016-11-05T07:29:44.500Z,994.39
2016-11-05T07:30:44.484Z,994.35
2016-11-05T07:31:44.467Z,994.34
2016-11-05T07:32:44.452Z,994.32
2016-11-05T07:33:44.439Z,994.32
2016-11-05T07:34:44.419Z,994.35
2016-11-05T07:35:44.404Z,994.34
2016-11-05T07:36:44.386Z,994.33
2016-11-05T07:37:44.377Z,994.31
2016-11-05T07:38:44.356Z,994.31
2016-11-05T07:39:44.339Z,994.22
2016-11-05T07:40:44.324Z,994.3
2016-11-05T07:41:44.309Z,994.27
2016-11-05T07:42:44.292Z,994.26
2016-11-05T07:43:44.280Z,994.26
2016-11-05T07:44:44.260Z,994.3
2016-11-05T07:45:44.244Z,994.26
2016-11-05T07:46:44.231Z,994.21
2016-11-05T07:47:44.214Z,994.2
2016-11-05T07:48:44.200Z,994.2
2016-11-05T07:49:44.181Z,994.16
2016-11-05T07:50:44.168Z,994.16
2016-11-05T07:51:44.151Z,994.08
2016-11-05T07:52:44.133Z,994.11
2016-11-05T07:53:44.119Z,994.1
2016-11-05T07:54:44.108Z,994.08
2016-11-05T07:55:44.090Z,994.07
2016-11-05T07:56:44.071Z,994.11
2016-11-05T07:57:44.060Z,994.11
2016-11-05T07:58:44.039Z,994.14
2016-11-05T07:59:44.027Z,994.12
2016-11-05T08:00:44.009Z,994.13
2016-11-05T08:01:43.993Z,994.11
2016-11-05T08:02:43.978Z,994.1
2016-11-05T08:03:43.964Z,994.09
2016-11-05T08:04:43.948Z,994.13
2016-11-05T08:05:43.932Z,994.11
2016-11-05T08:06:43.915Z,994.15
2016-11-05T08:07:43.896Z,994.12
2016-11-05T08:08:43.884Z,994.11
2016-11-05T08:09:43.871Z,994.15
2016-11-05T08:10:43.850Z,994.15
2016-11-05T08:11:43.838Z,994.17
2016-11-05T08:12:43.820Z,994.17
2016-11-05T08:13:43.805Z,994.24
2016-11-05T08:14:43.788Z,994.22
2016-11-05T08:15:43.773Z,994.25
2016-11-05T08:16:43.757Z,994.29
2016-11-05T08:17:43.743Z,994.29
2016-11-05T08:18:43.724Z,994.28
2016-11-05T08:19:43.713Z,994.28
2016-11-05T08:20:43.694Z,994.31
2016-11-05T08:21:43.681Z,994.28
2016-11-05T08:22:43.669Z,994.28
2016-11-05T08:23:43.649Z,994.3
2016-11-05T08:24:43.635Z,994.24
2016-11-05T08:25:43.613Z,994.25
2016-11-05T08:26:43.599Z,994.22
2016-11-05T08:27:43.584Z,994.21
2016-11-05T08:28:43.569Z,994.2
2016-11-05T08:29:43.551Z,994.25
2016-11-05T08:30:43.538Z,994.28
2016-11-05T08:31:43.523Z,994.3
2016-11-05T08:32:43.504Z,994.31
2016-11-05T08:33:43.489Z,994.33
2016-11-05T08:34:43.473Z,994.35
2016-11-05T08:35:43.458Z,994.33
2016-11-05T08:36:43.444Z,994.35
2016-11-05T08:37:43.424Z,994.37
2016-11-05T08:38:43.409Z,994.38
2016-11-05T08:39:43.396Z,994.34
2016-11-05T08:40:43.379Z,994.31
2016-11-05T08:41:43.364Z,994.28
2016-11-05T08:42:43.348Z,994.3
2016-11-05T08:43:43.331Z,994.27
2016-11-05T08:44:43.316Z,994.3
2016-11-05T08:45:43.300Z,994.31
2016-11-05T08:46:43.285Z,994.34
2016-11-05T08:47:43.268Z,994.38
2016-11-05T08:48:43.253Z,994.38
2016-11-05T08:49:43.238Z,994.38
2016-11-05T08:50:43.223Z,994.36
2016-11-05T08:51:43.205Z,994.36
2016-11-05T08:52:43.190Z,994.39
2016-11-05T08:53:43.180Z,994.36
2016-11-05T08:54:43.167Z,994.35
2016-11-05T08:55:43.147Z,994.33
2016-11-05T08:56:43.128Z,994.35
2016-11-05T08:57:43.113Z,994.43
2016-11-05T08:58:43.097Z,994.37
2016-11-05T08:59:43.081Z,994.41
2016-11-05T09:00:43.065Z,994.35
2016-11-05T09:01:43.054Z,994.37
2016-11-05T09:02:43.032Z,994.41
2016-11-05T09:03:43.022Z,994.38
2016-11-05T09:04:43.002Z,994.35
2016-11-05T09:05:42.985Z,994.35
2016-11-05T09:06:42.970Z,994.38
2016-11-05T09:07:42.954Z,994.35
2016-11-05T09:08:42.944Z,994.41
2016-11-05T09:09:42.924Z,994.38
2016-11-05T09:10:42.909Z,994.39
2016-11-05T09:11:42.892Z,994.41
2016-11-05T09:12:42.877Z,994.46
2016-11-05T09:13:42.871Z,994.48
2016-11-05T09:14:42.846Z,994.44
2016-11-05T09:15:42.829Z,994.44
2016-11-05T09:16:42.814Z,994.41
2016-11-05T09:17:42.799Z,994.38
2016-11-05T09:18:42.781Z,994.38
2016-11-05T09:19:42.771Z,994.36
2016-11-05T09:20:42.749Z,994.37
2016-11-05T09:21:42.734Z,994.36
2016-11-05T09:22:42.720Z,994.33
2016-11-05T09:23:42.704Z,994.36
2016-11-05T09:24:42.686Z,994.36
2016-11-05T09:25:42.671Z,994.36
2016-11-05T09:26:42.656Z,994.41
2016-11-05T09:27:42.639Z,994.42
2016-11-05T09:28:42.624Z,994.38
2016-11-05T09:29:42.609Z,994.34
2016-11-05T09:30:42.595Z,994.32
2016-11-05T09:31:42.576Z,994.37
2016-11-05T09:32:42.561Z,994.32
2016-11-05T09:33:42.547Z,994.32
2016-11-05T09:34:42.530Z,994.35
2016-11-05T09:35:42.516Z,994.3
2016-11-05T09:36:42.498Z,994.34
2016-11-05T09:37:42.489Z,994.29
2016-11-05T09:38:42.468Z,994.32
2016-11-05T09:39:42.452Z,994.36
2016-11-05T09:40:42.436Z,994.42
2016-11-05T09:41:42.420Z,994.34
2016-11-05T09:42:42.403Z,994.34
2016-11-05T09:43:42.389Z,994.42
2016-11-05T09:44:42.373Z,994.36
2016-11-05T09:45:42.356Z,994.42
2016-11-05T09:46:42.342Z,994.37
2016-11-05T09:47:42.327Z,994.35
2016-11-05T09:48:42.310Z,994.35
2016-11-05T09:49:42.294Z,994.34
2016-11-05T09:50:42.277Z,994.37
2016-11-05T09:51:42.262Z,994.34
2016-11-05T09:52:42.247Z,994.41
2016-11-05T09:53:42.231Z,994.38
2016-11-05T09:54:42.215Z,994.38
2016-11-05T09:55:42.199Z,994.4
2016-11-05T09:56:42.184Z,994.37
2016-11-05T09:57:42.169Z,994.36
2016-11-05T09:58:42.152Z,994.39
2016-11-05T09:59:42.141Z,994.35
2016-11-05T10:00:42.120Z,994.39
2016-11-05T10:01:42.105Z,994.41
2016-11-05T10:02:42.094Z,994.38
2016-11-05T10:03:42.074Z,994.38
2016-11-05T10:04:42.061Z,994.42
2016-11-05T10:05:42.042Z,994.36
2016-11-05T10:06:42.028Z,994.4
2016-11-05T10:07:42.013Z,994.36
2016-11-05T10:08:41.993Z,994.32
2016-11-05T10:09:41.983Z,994.27
2016-11-05T10:10:41.963Z,994.2
2016-11-05T10:11:41.946Z,994.23
2016-11-05T10:12:41.931Z,994.25
2016-11-05T10:13:41.920Z,994.25
2016-11-05T10:14:41.902Z,994.18
2016-11-05T10:15:41.891Z,994.15
2016-11-05T10:16:41.868Z,994.14
2016-11-05T10:17:41.852Z,994.09
2016-11-05T10:18:41.836Z,994.07
2016-11-05T10:19:41.821Z,994.05
2016-11-05T10:20:41.806Z,994.09
2016-11-05T10:21:41.791Z,994.05
2016-11-05T10:22:41.775Z,994.09
2016-11-05T10:23:41.756Z,994.03
2016-11-05T10:24:41.745Z,994.06
2016-11-05T10:25:41.727Z,994.07
2016-11-05T10:26:41.710Z,994.08
2016-11-05T10:27:41.695Z,994.03
2016-11-05T10:28:41.687Z,994.09
2016-11-05T10:29:41.663Z,994.05
2016-11-05T10:30:41.648Z,994.05
2016-11-05T10:31:41.633Z,994.05
2016-11-05T10:32:41.619Z,994.01
2016-11-05T10:33:41.602Z,994.03
2016-11-05T10:34:41.585Z,994.05
2016-11-05T10:35:41.572Z,994.09
2016-11-05T10:36:41.555Z,994.06
2016-11-05T10:37:41.537Z,994.07
2016-11-05T10:38:41.523Z,994.03
2016-11-05T10:39:41.507Z,994.03
2016-11-05T10:40:41.490Z,994.05
2016-11-05T10:41:41.475Z,994
2016-11-05T10:42:41.461Z,994.01
2016-11-05T10:43:41.444Z,994.02
2016-11-05T10:44:41.428Z,994.05
2016-11-05T10:45:41.414Z,993.98
2016-11-05T10:46:41.397Z,993.97
2016-11-05T10:47:41.381Z,993.97
2016-11-05T10:48:41.364Z,993.95
2016-11-05T10:49:41.349Z,993.94
2016-11-05T10:50:41.334Z,994.04
2016-11-05T10:51:41.317Z,993.99
2016-11-05T10:52:41.301Z,994.08
2016-11-05T10:53:41.286Z,994.05
2016-11-05T10:54:41.269Z,994.08
2016-11-05T10:55:41.254Z,994.09
2016-11-05T10:56:41.241Z,994.02
2016-11-05T10:57:41.223Z,993.99
2016-11-05T10:58:41.210Z,994.07
2016-11-05T10:59:41.191Z,994.02
2016-11-05T11:00:41.176Z,994.01
2016-11-05T11:01:41.160Z,994.03
2016-11-05T11:02:41.144Z,994.05
2016-11-05T11:03:41.128Z,994.01
2016-11-05T11:04:41.113Z,994.05
2016-11-05T11:05:41.098Z,994.02
2016-11-05T11:06:41.081Z,994.04
2016-11-05T11:07:41.065Z,994.01
2016-11-05T11:08:41.050Z,994.04
2016-11-05T11:09:41.035Z,994.05
2016-11-05T11:10:41.018Z,994.06
2016-11-05T11:11:41.006Z,994.01
2016-11-05T11:12:40.986Z,993.95
2016-11-05T11:13:40.973Z,993.9
2016-11-05T11:14:40.955Z,993.84
2016-11-05T11:15:40.940Z,993.83
2016-11-05T11:16:40.924Z,993.81
2016-11-05T11:17:40.912Z,993.81
2016-11-05T11:18:40.892Z,993.86
2016-11-05T11:19:40.885Z,993.82
2016-11-05T11:20:40.861Z,993.83
2016-11-05T11:21:40.846Z,993.84
2016-11-05T11:22:40.831Z,993.83
2016-11-05T11:23:40.816Z,993.82
2016-11-05T11:24:40.800Z,993.79
2016-11-05T11:25:40.794Z,993.79
2016-11-05T11:26:40.769Z,993.8
2016-11-05T11:27:40.753Z,993.75
2016-11-05T11:28:40.738Z,993.75
2016-11-05T11:29:40.720Z,993.71
2016-11-05T11:30:40.709Z,993.69
2016-11-05T11:31:40.691Z,993.7
2016-11-05T11:32:40.677Z,993.74
2016-11-05T11:33:40.660Z,993.73
2016-11-05T11:34:40.650Z,993.78
2016-11-05T11:35:40.629Z,993.77
2016-11-05T11:36:40.614Z,993.76
2016-11-05T11:37:40.597Z,993.72
2016-11-05T11:38:40.582Z,993.7
2016-11-05T11:39:40.564Z,993.72
2016-11-05T11:40:40.549Z,993.79
2016-11-05T11:41:40.534Z,993.79
2016-11-05T11:42:40.517Z,993.79
2016-11-05T11:43:40.501Z,993.78
2016-11-05T11:44:40.487Z,993.78
2016-11-05T11:45:40.471Z,993.73
2016-11-05T11:46:40.455Z,993.7
2016-11-05T11:47:40.440Z,993.71
2016-11-05T11:48:40.422Z,993.73
2016-11-05T11:49:40.408Z,993.72
2016-11-05T11:50:40.391Z,993.73
2016-11-05T11:51:40.376Z,993.78
2016-11-05T11:52:40.371Z,993.79
2016-11-05T11:53:40.346Z,993.77
2016-11-05T11:54:40.330Z,993.78
2016-11-05T11:55:40.313Z,993.77
2016-11-05T11:56:40.298Z,993.77
2016-11-05T11:57:40.283Z,993.77
2016-11-05T11:58:40.266Z,993.74
2016-11-05T11:59:40.252Z,993.74
2016-11-05T12:00:40.235Z,993.73
2016-11-05T12:01:40.220Z,993.71
2016-11-05T12:02:40.205Z,993.74
2016-11-05T12:03:40.191Z,993.78
2016-11-05T12:04:40.171Z,993.72
2016-11-05T12:05:40.157Z,993.72
2016-11-05T12:06:40.143Z,993.65
2016-11-05T12:07:40.126Z,993.68
2016-11-05T12:08:40.109Z,993.64
2016-11-05T12:09:40.094Z,993.58
2016-11-05T12:10:40.079Z,993.6
2016-11-05T12:11:40.063Z,993.61
2016-11-05T12:12:40.045Z,993.6
2016-11-05T12:13:40.034Z,993.57
2016-11-05T12:14:40.016Z,993.59
2016-11-05T12:15:39.999Z,993.59
2016-11-05T12:16:39.984Z,993.59
2016-11-05T12:17:39.970Z,993.56
2016-11-05T12:18:39.956Z,993.57
2016-11-05T12:19:39.942Z,993.55
2016-11-05T12:20:39.921Z,993.53
2016-11-05T12:21:39.908Z,993.53
2016-11-05T12:22:39.894Z,993.57
2016-11-05T12:23:39.875Z,993.56
2016-11-05T12:24:39.866Z,993.58
2016-11-05T12:25:39.845Z,993.56
2016-11-05T12:26:39.827Z,993.58
2016-11-05T12:27:39.812Z,993.59
2016-11-05T12:28:39.799Z,993.53
2016-11-05T12:29:39.781Z,993.54
2016-11-05T12:30:39.768Z,993.55
2016-11-05T12:31:39.752Z,993.52